Erick, OK (73645)

9:29 PM CST on December 10, 2016 (GMT -0600)
Keahey farms | | Change Station

Elev 1982 ft 35.25 °N, 99.79 °W | Updated 4 seconds ago

Partly Cloudy
Partly Cloudy
45.0 °F
Feels Like 43 °F
N
4.0
Wind Variable Wind from SSE
Gusts 4.9 mph

Today
High -- | Low -- °F
--% Chance of Precip.
Yesterday
High -- | Low -- °F
Precip. -- in
Pressure 29.89 in
Visibility 10.0 miles
Clouds Clear
Windchill 43 °F
Dew Point 22 °F
Humidity 39%
Rainfall 0.00 in
Snow Depth Not available.
7:37 AM 5:27 PM
Waxing Gibbous, 88% visible
METAR KCSM 110253Z AUTO 18023G33KT 10SM CLR 07/03 A2988 RMK AO2 PK WND 18033/0237 SLP121 T00720028 56027
Pressure 29.89 in
Visibility 10.0 miles
Clouds Clear
Windchill 43 °F
Dew Point 22 °F
Humidity 39%
Rainfall 0.00 in
Snow Depth Not available.
7:37 AM 5:27 PM
Waxing Gibbous, 88% visible
METAR KCSM 110253Z AUTO 18023G33KT 10SM CLR 07/03 A2988 RMK AO2 PK WND 18033/0237 SLP121 T00720028 56027

10-Day Weather Forecast

Almanac

Astronomy

Dec. 10, 2016 Rise Set
Actual Time
Civil Twilight
Nautical Twilight
Astronomical Twilight
Moon
Length of Visible Light
Length of Day
Tomorrow will be .
, % of the Moon is Illuminated

Today's Extremes

State Highs State Lows

Community

WunderPhotos

Upload Photos

1,956,702 photos uploaded!

WunderBlog® & News

Nearby

Air Quality

  Air Quality AQ Index Pollutant
Not available.

Snow Depth

Station Depth Elevation

Earthquake Activity

City Distance Mag. Time & Date
Minimum magnitude displayed is 2.5.

Coastal Water Temperatures

Place Temperature

Stations

Nearby Weather Stations

Station Location Temp. Windchill Dew Point Humidity Wind Precip. Elev Updated Type
                   

Watches & Warnings

There are currently no watches in effect.